sensor_id;sensor_type;location;lat;lon;timestamp;P1;durP1;ratioP1;P2;durP2;ratioP2
53497;SDS011;39382;47.168;16.008;2023-06-19T00:00:44;4.00;;;3.60;;
53497;SDS011;39382;47.168;16.008;2023-06-19T00:03:10;4.50;;;3.75;;
53497;SDS011;39382;47.168;16.008;2023-06-19T00:05:36;6.45;;;3.58;;
53497;SDS011;39382;47.168;16.008;2023-06-19T00:08:01;5.97;;;3.53;;
53497;SDS011;39382;47.168;16.008;2023-06-19T00:10:29;5.10;;;4.03;;
53497;SDS011;39382;47.168;16.008;2023-06-19T00:12:55;5.13;;;4.30;;
53497;SDS011;39382;47.168;16.008;2023-06-19T00:15:20;5.25;;;4.70;;
53497;SDS011;39382;47.168;16.008;2023-06-19T00:17:46;6.72;;;4.00;;
53497;SDS011;39382;47.168;16.008;2023-06-19T00:20:11;5.32;;;4.32;;
53497;SDS011;39382;47.168;16.008;2023-06-19T00:22:38;5.82;;;4.45;;
53497;SDS011;39382;47.168;16.008;2023-06-19T00:25:04;8.45;;;4.07;;
53497;SDS011;39382;47.168;16.008;2023-06-19T00:27:30;9.55;;;4.55;;
53497;SDS011;39382;47.168;16.008;2023-06-19T00:29:56;9.13;;;4.88;;
53497;SDS011;39382;47.168;16.008;2023-06-19T00:32:27;5.57;;;4.47;;
53497;SDS011;39382;47.168;16.008;2023-06-19T00:34:53;5.40;;;4.13;;
53497;SDS011;39382;47.168;16.008;2023-06-19T00:37:19;6.18;;;5.13;;
53497;SDS011;39382;47.168;16.008;2023-06-19T00:39:45;4.57;;;4.07;;
53497;SDS011;39382;47.168;16.008;2023-06-19T00:42:10;10.98;;;4.22;;
53497;SDS011;39382;47.168;16.008;2023-06-19T00:44:36;7.05;;;3.90;;
53497;SDS011;39382;47.168;16.008;2023-06-19T00:47:02;6.18;;;4.07;;
53497;SDS011;39382;47.168;16.008;2023-06-19T00:49:29;5.00;;;3.80;;
53497;SDS011;39382;47.168;16.008;2023-06-19T00:51:55;4.90;;;3.97;;
53497;SDS011;39382;47.168;16.008;2023-06-19T00:54:22;4.93;;;3.67;;
53497;SDS011;39382;47.168;16.008;2023-06-19T00:56:48;5.25;;;4.30;;
53497;SDS011;39382;47.168;16.008;2023-06-19T00:59:15;6.70;;;3.38;;
53497;SDS011;39382;47.168;16.008;2023-06-19T01:01:42;5.55;;;4.18;;
53497;SDS011;39382;47.168;16.008;2023-06-19T01:04:08;7.88;;;3.70;;
53497;SDS011;39382;47.168;16.008;2023-06-19T01:06:41;5.82;;;4.18;;
53497;SDS011;39382;47.168;16.008;2023-06-19T01:09:17;5.32;;;4.50;;
53497;SDS011;39382;47.168;16.008;2023-06-19T01:11:52;5.55;;;4.38;;
53497;SDS011;39382;47.168;16.008;2023-06-19T01:14:41;4.75;;;3.83;;
53497;SDS011;39382;47.168;16.008;2023-06-19T01:17:14;6.28;;;4.43;;
53497;SDS011;39382;47.168;16.008;2023-06-19T01:19:40;4.88;;;3.67;;
53497;SDS011;39382;47.168;16.008;2023-06-19T01:22:06;6.13;;;4.95;;
53497;SDS011;39382;47.168;16.008;2023-06-19T01:24:32;4.78;;;4.00;;
53497;SDS011;39382;47.168;16.008;2023-06-19T01:26:57;5.38;;;4.32;;
53497;SDS011;39382;47.168;16.008;2023-06-19T01:29:23;6.40;;;4.95;;
53497;SDS011;39382;47.168;16.008;2023-06-19T01:31:54;9.30;;;5.68;;
53497;SDS011;39382;47.168;16.008;2023-06-19T01:34:27;6.03;;;4.93;;
53497;SDS011;39382;47.168;16.008;2023-06-19T01:36:55;7.20;;;5.07;;
53497;SDS011;39382;47.168;16.008;2023-06-19T01:39:22;11.77;;;5.25;;
53497;SDS011;39382;47.168;16.008;2023-06-19T01:41:48;7.45;;;4.70;;
53497;SDS011;39382;47.168;16.008;2023-06-19T01:44:15;10.98;;;5.63;;
53497;SDS011;39382;47.168;16.008;2023-06-19T01:46:41;8.07;;;4.97;;
53497;SDS011;39382;47.168;16.008;2023-06-19T01:49:07;10.43;;;5.80;;
53497;SDS011;39382;47.168;16.008;2023-06-19T01:51:34;5.68;;;4.63;;
53497;SDS011;39382;47.168;16.008;2023-06-19T01:54:00;5.13;;;4.55;;
53497;SDS011;39382;47.168;16.008;2023-06-19T01:56:26;5.40;;;4.30;;
53497;SDS011;39382;47.168;16.008;2023-06-19T01:58:52;6.65;;;4.25;;
53497;SDS011;39382;47.168;16.008;2023-06-19T02:01:20;5.38;;;4.68;;
53497;SDS011;39382;47.168;16.008;2023-06-19T02:03:46;7.88;;;4.57;;
53497;SDS011;39382;47.168;16.008;2023-06-19T02:06:11;7.45;;;4.43;;
53497;SDS011;39382;47.168;16.008;2023-06-19T02:08:37;6.53;;;5.03;;
53497;SDS011;39382;47.168;16.008;2023-06-19T02:11:03;7.05;;;5.72;;
53497;SDS011;39382;47.168;16.008;2023-06-19T02:13:28;6.13;;;4.88;;
53497;SDS011;39382;47.168;16.008;2023-06-19T02:15:54;6.60;;;5.05;;
53497;SDS011;39382;47.168;16.008;2023-06-19T02:18:20;7.03;;;5.38;;
53497;SDS011;39382;47.168;16.008;2023-06-19T02:20:45;6.78;;;4.60;;
53497;SDS011;39382;47.168;16.008;2023-06-19T02:23:11;5.65;;;4.55;;
53497;SDS011;39382;47.168;16.008;2023-06-19T02:25:37;7.78;;;5.05;;
53497;SDS011;39382;47.168;16.008;2023-06-19T02:28:02;7.18;;;4.82;;
53497;SDS011;39382;47.168;16.008;2023-06-19T02:30:28;7.93;;;5.47;;
53497;SDS011;39382;47.168;16.008;2023-06-19T02:32:54;8.02;;;5.45;;
53497;SDS011;39382;47.168;16.008;2023-06-19T02:35:20;7.38;;;5.20;;
53497;SDS011;39382;47.168;16.008;2023-06-19T02:37:45;7.15;;;5.15;;
53497;SDS011;39382;47.168;16.008;2023-06-19T02:40:12;7.15;;;5.03;;
53497;SDS011;39382;47.168;16.008;2023-06-19T02:42:39;5.82;;;4.95;;
53497;SDS011;39382;47.168;16.008;2023-06-19T02:45:05;7.10;;;5.35;;
53497;SDS011;39382;47.168;16.008;2023-06-19T02:47:31;6.78;;;5.03;;
53497;SDS011;39382;47.168;16.008;2023-06-19T02:49:58;9.05;;;5.50;;
53497;SDS011;39382;47.168;16.008;2023-06-19T02:52:24;6.97;;;5.68;;
53497;SDS011;39382;47.168;16.008;2023-06-19T02:54:50;6.93;;;5.78;;
53497;SDS011;39382;47.168;16.008;2023-06-19T02:57:16;6.78;;;4.75;;
53497;SDS011;39382;47.168;16.008;2023-06-19T02:59:41;7.22;;;5.45;;
53497;SDS011;39382;47.168;16.008;2023-06-19T03:02:07;8.65;;;5.40;;
53497;SDS011;39382;47.168;16.008;2023-06-19T03:04:32;8.52;;;5.25;;
53497;SDS011;39382;47.168;16.008;2023-06-19T03:06:58;10.77;;;5.18;;
53497;SDS011;39382;47.168;16.008;2023-06-19T03:09:24;6.20;;;5.15;;
53497;SDS011;39382;47.168;16.008;2023-06-19T03:11:49;6.07;;;4.95;;
53497;SDS011;39382;47.168;16.008;2023-06-19T03:14:15;5.32;;;4.75;;
53497;SDS011;39382;47.168;16.008;2023-06-19T03:16:41;6.05;;;5.18;;
53497;SDS011;39382;47.168;16.008;2023-06-19T03:19:06;6.30;;;4.72;;
53497;SDS011;39382;47.168;16.008;2023-06-19T03:21:32;11.57;;;5.57;;
53497;SDS011;39382;47.168;16.008;2023-06-19T03:23:57;6.88;;;5.20;;
53497;SDS011;39382;47.168;16.008;2023-06-19T03:26:23;6.85;;;5.25;;
53497;SDS011;39382;47.168;16.008;2023-06-19T03:28:52;5.55;;;4.28;;
53497;SDS011;39382;47.168;16.008;2023-06-19T03:31:18;6.88;;;5.53;;
53497;SDS011;39382;47.168;16.008;2023-06-19T03:33:43;10.27;;;5.10;;
53497;SDS011;39382;47.168;16.008;2023-06-19T03:36:09;8.50;;;5.32;;
53497;SDS011;39382;47.168;16.008;2023-06-19T03:38:35;6.57;;;5.47;;
53497;SDS011;39382;47.168;16.008;2023-06-19T03:41:01;6.88;;;5.53;;
53497;SDS011;39382;47.168;16.008;2023-06-19T03:43:27;7.22;;;5.35;;
53497;SDS011;39382;47.168;16.008;2023-06-19T03:45:52;9.82;;;5.80;;
53497;SDS011;39382;47.168;16.008;2023-06-19T03:48:18;6.72;;;6.03;;
53497;SDS011;39382;47.168;16.008;2023-06-19T03:50:44;10.90;;;6.03;;
53497;SDS011;39382;47.168;16.008;2023-06-19T03:53:09;14.27;;;5.70;;
53497;SDS011;39382;47.168;16.008;2023-06-19T03:55:35;8.57;;;4.97;;
53497;SDS011;39382;47.168;16.008;2023-06-19T03:58:01;7.80;;;5.30;;
53497;SDS011;39382;47.168;16.008;2023-06-19T04:00:27;8.25;;;5.70;;
53497;SDS011;39382;47.168;16.008;2023-06-19T04:02:52;5.70;;;4.75;;
53497;SDS011;39382;47.168;16.008;2023-06-19T04:05:18;7.55;;;5.78;;
53497;SDS011;39382;47.168;16.008;2023-06-19T04:07:44;7.03;;;5.63;;
53497;SDS011;39382;47.168;16.008;2023-06-19T04:10:10;8.80;;;6.07;;
53497;SDS011;39382;47.168;16.008;2023-06-19T04:12:39;7.47;;;5.88;;
53497;SDS011;39382;47.168;16.008;2023-06-19T04:15:06;9.48;;;6.85;;
53497;SDS011;39382;47.168;16.008;2023-06-19T04:17:32;9.50;;;5.90;;
53497;SDS011;39382;47.168;16.008;2023-06-19T04:19:57;19.40;;;10.52;;
53497;SDS011;39382;47.168;16.008;2023-06-19T04:22:23;12.13;;;8.13;;
53497;SDS011;39382;47.168;16.008;2023-06-19T04:24:49;7.97;;;5.60;;
53497;SDS011;39382;47.168;16.008;2023-06-19T04:27:15;6.25;;;5.15;;
53497;SDS011;39382;47.168;16.008;2023-06-19T04:29:40;8.45;;;7.00;;
53497;SDS011;39382;47.168;16.008;2023-06-19T04:32:06;8.90;;;6.45;;
53497;SDS011;39382;47.168;16.008;2023-06-19T04:34:36;7.38;;;6.10;;
53497;SDS011;39382;47.168;16.008;2023-06-19T04:37:03;6.50;;;5.43;;
53497;SDS011;39382;47.168;16.008;2023-06-19T04:39:30;5.50;;;4.38;;
53497;SDS011;39382;47.168;16.008;2023-06-19T04:41:55;7.03;;;4.97;;
53497;SDS011;39382;47.168;16.008;2023-06-19T04:44:21;11.05;;;6.35;;
53497;SDS011;39382;47.168;16.008;2023-06-19T04:46:47;8.63;;;6.45;;
53497;SDS011;39382;47.168;16.008;2023-06-19T04:49:13;7.55;;;5.85;;
53497;SDS011;39382;47.168;16.008;2023-06-19T04:51:39;6.93;;;5.40;;
53497;SDS011;39382;47.168;16.008;2023-06-19T04:54:06;9.05;;;5.82;;
53497;SDS011;39382;47.168;16.008;2023-06-19T04:56:32;6.72;;;5.45;;
53497;SDS011;39382;47.168;16.008;2023-06-19T04:58:57;6.10;;;5.05;;
53497;SDS011;39382;47.168;16.008;2023-06-19T05:01:25;8.30;;;5.82;;
53497;SDS011;39382;47.168;16.008;2023-06-19T05:03:54;6.63;;;5.00;;
53497;SDS011;39382;47.168;16.008;2023-06-19T05:06:21;7.35;;;5.93;;
53497;SDS011;39382;47.168;16.008;2023-06-19T05:08:49;8.30;;;6.55;;
53497;SDS011;39382;47.168;16.008;2023-06-19T05:11:15;8.52;;;5.82;;
53497;SDS011;39382;47.168;16.008;2023-06-19T05:13:41;11.13;;;6.55;;
53497;SDS011;39382;47.168;16.008;2023-06-19T05:16:06;8.85;;;5.80;;
53497;SDS011;39382;47.168;16.008;2023-06-19T05:18:32;6.97;;;5.55;;
53497;SDS011;39382;47.168;16.008;2023-06-19T05:20:58;12.02;;;6.32;;
53497;SDS011;39382;47.168;16.008;2023-06-19T05:23:23;8.20;;;5.40;;
53497;SDS011;39382;47.168;16.008;2023-06-19T05:25:49;12.20;;;5.05;;
53497;SDS011;39382;47.168;16.008;2023-06-19T05:28:15;10.48;;;5.75;;
53497;SDS011;39382;47.168;16.008;2023-06-19T05:30:41;7.68;;;6.07;;
53497;SDS011;39382;47.168;16.008;2023-06-19T05:33:07;5.60;;;5.00;;
53497;SDS011;39382;47.168;16.008;2023-06-19T05:35:32;6.05;;;4.97;;
53497;SDS011;39382;47.168;16.008;2023-06-19T05:37:58;11.60;;;4.90;;
53497;SDS011;39382;47.168;16.008;2023-06-19T05:40:23;6.47;;;5.00;;
53497;SDS011;39382;47.168;16.008;2023-06-19T05:42:49;6.57;;;5.03;;
53497;SDS011;39382;47.168;16.008;2023-06-19T05:45:15;5.97;;;4.57;;
53497;SDS011;39382;47.168;16.008;2023-06-19T05:47:40;4.72;;;4.22;;
53497;SDS011;39382;47.168;16.008;2023-06-19T05:50:06;6.28;;;4.35;;
53497;SDS011;39382;47.168;16.008;2023-06-19T05:52:32;6.25;;;4.43;;
53497;SDS011;39382;47.168;16.008;2023-06-19T05:54:58;9.75;;;4.80;;
53497;SDS011;39382;47.168;16.008;2023-06-19T05:57:23;11.10;;;4.85;;
53497;SDS011;39382;47.168;16.008;2023-06-19T05:59:49;7.22;;;5.40;;
53497;SDS011;39382;47.168;16.008;2023-06-19T06:02:17;8.32;;;4.85;;
53497;SDS011;39382;47.168;16.008;2023-06-19T06:04:43;11.32;;;5.00;;
53497;SDS011;39382;47.168;16.008;2023-06-19T06:07:09;8.23;;;5.10;;
53497;SDS011;39382;47.168;16.008;2023-06-19T06:09:35;6.30;;;4.65;;
53497;SDS011;39382;47.168;16.008;2023-06-19T06:12:01;6.10;;;4.65;;
53497;SDS011;39382;47.168;16.008;2023-06-19T06:14:26;5.80;;;4.63;;
53497;SDS011;39382;47.168;16.008;2023-06-19T06:16:52;4.70;;;4.03;;
53497;SDS011;39382;47.168;16.008;2023-06-19T06:19:21;7.45;;;3.97;;
53497;SDS011;39382;47.168;16.008;2023-06-19T06:21:49;5.78;;;4.32;;
53497;SDS011;39382;47.168;16.008;2023-06-19T06:24:15;8.25;;;6.00;;
53497;SDS011;39382;47.168;16.008;2023-06-19T06:26:41;7.78;;;5.43;;
53497;SDS011;39382;47.168;16.008;2023-06-19T06:29:07;8.32;;;5.10;;
53497;SDS011;39382;47.168;16.008;2023-06-19T06:31:33;5.75;;;4.50;;
53497;SDS011;39382;47.168;16.008;2023-06-19T06:33:59;8.00;;;4.57;;
53497;SDS011;39382;47.168;16.008;2023-06-19T06:36:24;10.75;;;4.75;;
53497;SDS011;39382;47.168;16.008;2023-06-19T06:38:50;5.53;;;4.93;;
53497;SDS011;39382;47.168;16.008;2023-06-19T06:41:16;5.93;;;4.68;;
53497;SDS011;39382;47.168;16.008;2023-06-19T06:43:42;5.57;;;4.00;;
53497;SDS011;39382;47.168;16.008;2023-06-19T06:46:08;5.88;;;4.82;;
53497;SDS011;39382;47.168;16.008;2023-06-19T06:48:34;5.18;;;4.43;;
53497;SDS011;39382;47.168;16.008;2023-06-19T06:50:59;7.15;;;4.70;;
53497;SDS011;39382;47.168;16.008;2023-06-19T06:53:26;4.88;;;4.32;;
53497;SDS011;39382;47.168;16.008;2023-06-19T06:55:58;4.32;;;3.40;;
53497;SDS011;39382;47.168;16.008;2023-06-19T06:58:25;4.78;;;3.65;;
53497;SDS011;39382;47.168;16.008;2023-06-19T07:00:51;6.53;;;4.20;;
53497;SDS011;39382;47.168;16.008;2023-06-19T07:03:17;6.97;;;3.72;;
53497;SDS011;39382;47.168;16.008;2023-06-19T07:05:43;4.35;;;3.10;;
53497;SDS011;39382;47.168;16.008;2023-06-19T07:08:09;4.35;;;3.92;;
53497;SDS011;39382;47.168;16.008;2023-06-19T07:10:35;5.90;;;3.58;;
53497;SDS011;39382;47.168;16.008;2023-06-19T07:13:00;3.88;;;3.47;;
53497;SDS011;39382;47.168;16.008;2023-06-19T07:15:26;4.18;;;3.65;;
53497;SDS011;39382;47.168;16.008;2023-06-19T07:17:52;4.57;;;3.53;;
53497;SDS011;39382;47.168;16.008;2023-06-19T07:20:17;3.83;;;3.17;;
53497;SDS011;39382;47.168;16.008;2023-06-19T07:22:43;3.60;;;2.65;;
53497;SDS011;39382;47.168;16.008;2023-06-19T07:25:10;3.90;;;3.20;;
53497;SDS011;39382;47.168;16.008;2023-06-19T07:27:37;4.20;;;2.95;;
53497;SDS011;39382;47.168;16.008;2023-06-19T07:30:03;5.10;;;4.00;;
53497;SDS011;39382;47.168;16.008;2023-06-19T07:32:30;7.03;;;3.63;;
53497;SDS011;39382;47.168;16.008;2023-06-19T07:34:55;3.15;;;2.80;;
53497;SDS011;39382;47.168;16.008;2023-06-19T07:37:21;4.38;;;3.03;;
53497;SDS011;39382;47.168;16.008;2023-06-19T07:39:50;4.65;;;3.20;;
53497;SDS011;39382;47.168;16.008;2023-06-19T07:42:16;4.28;;;3.25;;
53497;SDS011;39382;47.168;16.008;2023-06-19T07:44:43;6.97;;;3.55;;
53497;SDS011;39382;47.168;16.008;2023-06-19T07:47:09;4.45;;;3.22;;
53497;SDS011;39382;47.168;16.008;2023-06-19T07:49:35;2.90;;;2.58;;
53497;SDS011;39382;47.168;16.008;2023-06-19T07:52:01;4.00;;;3.30;;
53497;SDS011;39382;47.168;16.008;2023-06-19T07:54:28;4.55;;;3.00;;
53497;SDS011;39382;47.168;16.008;2023-06-19T07:56:53;4.38;;;2.67;;
53497;SDS011;39382;47.168;16.008;2023-06-19T07:59:19;3.67;;;3.38;;
53497;SDS011;39382;47.168;16.008;2023-06-19T08:01:45;11.73;;;3.30;;
53497;SDS011;39382;47.168;16.008;2023-06-19T08:04:11;4.20;;;3.15;;
53497;SDS011;39382;47.168;16.008;2023-06-19T08:06:36;4.38;;;3.10;;
53497;SDS011;39382;47.168;16.008;2023-06-19T08:09:02;4.53;;;3.45;;
53497;SDS011;39382;47.168;16.008;2023-06-19T08:11:28;4.45;;;2.88;;
53497;SDS011;39382;47.168;16.008;2023-06-19T08:13:54;5.13;;;3.53;;
53497;SDS011;39382;47.168;16.008;2023-06-19T08:16:20;4.13;;;3.22;;
53497;SDS011;39382;47.168;16.008;2023-06-19T08:18:46;5.72;;;3.70;;
53497;SDS011;39382;47.168;16.008;2023-06-19T08:21:12;4.50;;;4.10;;
53497;SDS011;39382;47.168;16.008;2023-06-19T08:23:38;4.32;;;3.30;;
53497;SDS011;39382;47.168;16.008;2023-06-19T08:26:04;3.38;;;3.08;;
53497;SDS011;39382;47.168;16.008;2023-06-19T08:28:31;4.00;;;3.60;;
53497;SDS011;39382;47.168;16.008;2023-06-19T08:30:57;7.18;;;3.33;;
53497;SDS011;39382;47.168;16.008;2023-06-19T08:33:23;4.90;;;3.03;;
53497;SDS011;39382;47.168;16.008;2023-06-19T08:35:48;2.70;;;2.50;;
53497;SDS011;39382;47.168;16.008;2023-06-19T08:38:14;5.38;;;2.90;;
53497;SDS011;39382;47.168;16.008;2023-06-19T08:40:43;3.33;;;2.80;;
53497;SDS011;39382;47.168;16.008;2023-06-19T08:43:09;3.60;;;3.13;;
53497;SDS011;39382;47.168;16.008;2023-06-19T08:45:35;4.82;;;2.72;;
53497;SDS011;39382;47.168;16.008;2023-06-19T08:48:01;3.85;;;3.15;;
53497;SDS011;39382;47.168;16.008;2023-06-19T08:50:33;3.53;;;3.20;;
53497;SDS011;39382;47.168;16.008;2023-06-19T08:52:59;3.58;;;2.92;;
53497;SDS011;39382;47.168;16.008;2023-06-19T08:55:24;3.22;;;2.92;;
53497;SDS011;39382;47.168;16.008;2023-06-19T08:57:50;4.05;;;3.28;;
53497;SDS011;39382;47.168;16.008;2023-06-19T09:00:24;2.95;;;2.65;;
53497;SDS011;39382;47.168;16.008;2023-06-19T09:02:50;4.22;;;2.88;;
53497;SDS011;39382;47.168;16.008;2023-06-19T09:05:17;3.38;;;2.83;;
53497;SDS011;39382;47.168;16.008;2023-06-19T09:07:44;3.85;;;3.20;;
53497;SDS011;39382;47.168;16.008;2023-06-19T09:10:19;4.00;;;3.25;;
53497;SDS011;39382;47.168;16.008;2023-06-19T09:13:00;5.90;;;3.22;;
53497;SDS011;39382;47.168;16.008;2023-06-19T09:15:34;3.27;;;2.90;;
53497;SDS011;39382;47.168;16.008;2023-06-19T09:18:05;5.88;;;3.45;;
53497;SDS011;39382;47.168;16.008;2023-06-19T09:20:39;3.80;;;3.08;;
53497;SDS011;39382;47.168;16.008;2023-06-19T09:23:09;7.15;;;3.58;;
53497;SDS011;39382;47.168;16.008;2023-06-19T09:28:39;4.28;;;3.17;;
53497;SDS011;39382;47.168;16.008;2023-06-19T09:31:07;5.10;;;3.38;;
53497;SDS011;39382;47.168;16.008;2023-06-19T09:33:33;6.68;;;3.58;;
53497;SDS011;39382;47.168;16.008;2023-06-19T09:36:00;3.72;;;3.40;;
53497;SDS011;39382;47.168;16.008;2023-06-19T09:38:32;3.25;;;2.95;;
53497;SDS011;39382;47.168;16.008;2023-06-19T09:41:03;3.72;;;3.30;;
53497;SDS011;39382;47.168;16.008;2023-06-19T09:43:36;3.63;;;3.10;;
53497;SDS011;39382;47.168;16.008;2023-06-19T09:46:04;4.10;;;3.70;;
53497;SDS011;39382;47.168;16.008;2023-06-19T09:48:31;3.90;;;2.88;;
53497;SDS011;39382;47.168;16.008;2023-06-19T09:51:00;3.60;;;2.97;;
53497;SDS011;39382;47.168;16.008;2023-06-19T09:53:36;4.80;;;4.00;;
53497;SDS011;39382;47.168;16.008;2023-06-19T09:56:02;4.47;;;3.35;;
53497;SDS011;39382;47.168;16.008;2023-06-19T09:58:28;3.70;;;3.33;;
53497;SDS011;39382;47.168;16.008;2023-06-19T10:00:55;8.90;;;3.60;;
53497;SDS011;39382;47.168;16.008;2023-06-19T10:03:29;4.28;;;2.80;;
53497;SDS011;39382;47.168;16.008;2023-06-19T10:06:00;5.05;;;3.85;;
53497;SDS011;39382;47.168;16.008;2023-06-19T10:10:57;7.38;;;3.85;;
53497;SDS011;39382;47.168;16.008;2023-06-19T10:13:30;4.68;;;3.53;;
53497;SDS011;39382;47.168;16.008;2023-06-19T10:18:24;4.25;;;3.65;;
53497;SDS011;39382;47.168;16.008;2023-06-19T10:20:51;7.32;;;3.40;;
53497;SDS011;39382;47.168;16.008;2023-06-19T10:23:19;4.97;;;3.65;;
53497;SDS011;39382;47.168;16.008;2023-06-19T10:28:23;3.33;;;3.03;;
53497;SDS011;39382;47.168;16.008;2023-06-19T10:30:59;4.05;;;3.35;;
53497;SDS011;39382;47.168;16.008;2023-06-19T10:33:33;4.38;;;3.55;;
53497;SDS011;39382;47.168;16.008;2023-06-19T10:36:01;5.18;;;3.30;;
53497;SDS011;39382;47.168;16.008;2023-06-19T10:38:42;4.10;;;3.47;;
53497;SDS011;39382;47.168;16.008;2023-06-19T10:41:24;3.33;;;3.03;;
53497;SDS011;39382;47.168;16.008;2023-06-19T10:46:23;4.03;;;3.60;;
53497;SDS011;39382;47.168;16.008;2023-06-19T10:48:54;3.40;;;3.10;;
53497;SDS011;39382;47.168;16.008;2023-06-19T10:51:24;4.97;;;3.60;;
53497;SDS011;39382;47.168;16.008;2023-06-19T10:53:50;3.78;;;3.38;;
53497;SDS011;39382;47.168;16.008;2023-06-19T10:56:20;4.25;;;3.35;;
53497;SDS011;39382;47.168;16.008;2023-06-19T10:58:46;4.07;;;3.47;;
53497;SDS011;39382;47.168;16.008;2023-06-19T11:01:12;8.52;;;3.47;;
53497;SDS011;39382;47.168;16.008;2023-06-19T11:03:37;7.53;;;4.05;;
53497;SDS011;39382;47.168;16.008;2023-06-19T11:06:03;4.05;;;3.65;;
53497;SDS011;39382;47.168;16.008;2023-06-19T11:08:29;4.20;;;3.33;;
53497;SDS011;39382;47.168;16.008;2023-06-19T11:10:55;11.98;;;3.50;;
53497;SDS011;39382;47.168;16.008;2023-06-19T11:13:21;3.65;;;3.35;;
53497;SDS011;39382;47.168;16.008;2023-06-19T11:15:47;6.88;;;3.78;;
53497;SDS011;39382;47.168;16.008;2023-06-19T11:18:14;7.07;;;3.97;;
53497;SDS011;39382;47.168;16.008;2023-06-19T11:20:45;4.13;;;3.70;;
53497;SDS011;39382;47.168;16.008;2023-06-19T11:23:13;3.70;;;3.10;;
53497;SDS011;39382;47.168;16.008;2023-06-19T11:25:39;7.50;;;4.00;;
53497;SDS011;39382;47.168;16.008;2023-06-19T11:28:13;4.68;;;3.90;;
53497;SDS011;39382;47.168;16.008;2023-06-19T11:30:42;3.85;;;3.45;;
53497;SDS011;39382;47.168;16.008;2023-06-19T11:33:41;4.47;;;3.95;;
53497;SDS011;39382;47.168;16.008;2023-06-19T11:36:00;8.60;;;3.80;;
53497;SDS011;39382;47.168;16.008;2023-06-19T11:38:27;3.65;;;3.22;;
53497;SDS011;39382;47.168;16.008;2023-06-19T11:40:54;4.32;;;3.78;;
53497;SDS011;39382;47.168;16.008;2023-06-19T11:45:52;3.42;;;3.00;;
53497;SDS011;39382;47.168;16.008;2023-06-19T11:48:22;3.97;;;3.40;;
53497;SDS011;39382;47.168;16.008;2023-06-19T11:50:49;4.05;;;3.45;;
53497;SDS011;39382;47.168;16.008;2023-06-19T11:53:16;4.15;;;3.83;;
53497;SDS011;39382;47.168;16.008;2023-06-19T11:58:09;4.88;;;3.17;;
53497;SDS011;39382;47.168;16.008;2023-06-19T12:00:38;5.53;;;3.80;;
53497;SDS011;39382;47.168;16.008;2023-06-19T12:03:04;3.78;;;3.22;;
53497;SDS011;39382;47.168;16.008;2023-06-19T12:05:29;4.97;;;3.85;;
53497;SDS011;39382;47.168;16.008;2023-06-19T12:07:55;4.40;;;3.25;;
53497;SDS011;39382;47.168;16.008;2023-06-19T12:10:22;4.22;;;3.83;;
53497;SDS011;39382;47.168;16.008;2023-06-19T12:12:47;4.30;;;3.40;;
53497;SDS011;39382;47.168;16.008;2023-06-19T12:15:13;3.47;;;3.17;;
53497;SDS011;39382;47.168;16.008;2023-06-19T12:17:38;4.60;;;4.00;;
53497;SDS011;39382;47.168;16.008;2023-06-19T12:20:04;3.78;;;3.38;;
53497;SDS011;39382;47.168;16.008;2023-06-19T12:22:31;4.68;;;3.80;;
53497;SDS011;39382;47.168;16.008;2023-06-19T12:24:58;4.95;;;4.40;;
53497;SDS011;39382;47.168;16.008;2023-06-19T12:27:24;3.90;;;3.45;;
53497;SDS011;39382;47.168;16.008;2023-06-19T12:29:50;4.20;;;3.80;;
53497;SDS011;39382;47.168;16.008;2023-06-19T12:32:15;3.83;;;3.35;;
53497;SDS011;39382;47.168;16.008;2023-06-19T12:34:41;4.43;;;3.78;;
53497;SDS011;39382;47.168;16.008;2023-06-19T12:37:11;4.95;;;3.90;;
53497;SDS011;39382;47.168;16.008;2023-06-19T12:39:41;3.70;;;2.83;;
53497;SDS011;39382;47.168;16.008;2023-06-19T12:42:07;3.90;;;3.22;;
53497;SDS011;39382;47.168;16.008;2023-06-19T12:44:33;4.78;;;3.50;;
53497;SDS011;39382;47.168;16.008;2023-06-19T12:46:58;4.38;;;3.97;;
53497;SDS011;39382;47.168;16.008;2023-06-19T12:49:25;5.03;;;3.53;;
53497;SDS011;39382;47.168;16.008;2023-06-19T12:51:51;3.60;;;3.30;;
53497;SDS011;39382;47.168;16.008;2023-06-19T12:54:17;3.35;;;3.05;;
53497;SDS011;39382;47.168;16.008;2023-06-19T12:56:43;3.85;;;3.42;;
53497;SDS011;39382;47.168;16.008;2023-06-19T12:59:09;3.85;;;3.40;;
53497;SDS011;39382;47.168;16.008;2023-06-19T13:01:35;5.22;;;3.10;;
53497;SDS011;39382;47.168;16.008;2023-06-19T13:04:01;3.92;;;3.28;;
53497;SDS011;39382;47.168;16.008;2023-06-19T13:06:26;4.88;;;3.92;;
53497;SDS011;39382;47.168;16.008;2023-06-19T13:08:52;5.10;;;4.07;;
53497;SDS011;39382;47.168;16.008;2023-06-19T13:11:18;4.95;;;3.80;;
53497;SDS011;39382;47.168;16.008;2023-06-19T13:13:43;3.88;;;3.47;;
53497;SDS011;39382;47.168;16.008;2023-06-19T13:16:09;5.63;;;3.72;;
53497;SDS011;39382;47.168;16.008;2023-06-19T13:18:35;3.72;;;3.28;;
53497;SDS011;39382;47.168;16.008;2023-06-19T13:21:01;3.92;;;3.53;;
53497;SDS011;39382;47.168;16.008;2023-06-19T13:23:26;6.38;;;3.35;;
53497;SDS011;39382;47.168;16.008;2023-06-19T13:25:52;4.55;;;3.67;;
53497;SDS011;39382;47.168;16.008;2023-06-19T13:28:17;5.18;;;3.35;;
53497;SDS011;39382;47.168;16.008;2023-06-19T13:30:43;4.53;;;2.85;;
53497;SDS011;39382;47.168;16.008;2023-06-19T13:33:09;5.35;;;3.50;;
53497;SDS011;39382;47.168;16.008;2023-06-19T13:35:35;5.20;;;2.80;;
53497;SDS011;39382;47.168;16.008;2023-06-19T13:38:01;4.88;;;3.33;;
53497;SDS011;39382;47.168;16.008;2023-06-19T13:40:27;7.75;;;3.35;;
53497;SDS011;39382;47.168;16.008;2023-06-19T13:42:52;3.92;;;2.88;;
53497;SDS011;39382;47.168;16.008;2023-06-19T13:45:19;3.22;;;2.90;;
53497;SDS011;39382;47.168;16.008;2023-06-19T13:47:45;3.25;;;2.95;;
53497;SDS011;39382;47.168;16.008;2023-06-19T13:50:11;3.60;;;3.20;;
53497;SDS011;39382;47.168;16.008;2023-06-19T13:52:42;5.30;;;3.40;;
53497;SDS011;39382;47.168;16.008;2023-06-19T13:55:09;3.40;;;3.05;;
53497;SDS011;39382;47.168;16.008;2023-06-19T13:57:34;7.07;;;3.22;;
53497;SDS011;39382;47.168;16.008;2023-06-19T14:00:02;3.80;;;3.40;;
53497;SDS011;39382;47.168;16.008;2023-06-19T14:02:28;3.80;;;3.28;;
53497;SDS011;39382;47.168;16.008;2023-06-19T14:04:53;3.15;;;2.80;;
53497;SDS011;39382;47.168;16.008;2023-06-19T14:07:19;4.65;;;3.35;;
53497;SDS011;39382;47.168;16.008;2023-06-19T14:09:48;5.35;;;2.75;;
53497;SDS011;39382;47.168;16.008;2023-06-19T14:12:13;3.85;;;2.97;;
53497;SDS011;39382;47.168;16.008;2023-06-19T14:14:39;3.30;;;2.90;;
53497;SDS011;39382;47.168;16.008;2023-06-19T14:17:04;3.85;;;3.47;;
53497;SDS011;39382;47.168;16.008;2023-06-19T14:19:31;4.82;;;2.72;;
53497;SDS011;39382;47.168;16.008;2023-06-19T14:21:56;4.30;;;3.25;;
53497;SDS011;39382;47.168;16.008;2023-06-19T14:24:22;4.18;;;2.85;;
53497;SDS011;39382;47.168;16.008;2023-06-19T14:26:49;3.55;;;3.20;;
53497;SDS011;39382;47.168;16.008;2023-06-19T14:29:15;5.20;;;3.55;;
53497;SDS011;39382;47.168;16.008;2023-06-19T14:31:43;3.33;;;3.03;;
53497;SDS011;39382;47.168;16.008;2023-06-19T14:34:09;3.20;;;2.90;;
53497;SDS011;39382;47.168;16.008;2023-06-19T14:36:36;2.65;;;2.45;;
53497;SDS011;39382;47.168;16.008;2023-06-19T14:39:03;3.40;;;2.95;;
53497;SDS011;39382;47.168;16.008;2023-06-19T14:41:28;3.47;;;3.08;;
53497;SDS011;39382;47.168;16.008;2023-06-19T14:43:54;4.13;;;3.22;;
53497;SDS011;39382;47.168;16.008;2023-06-19T14:46:19;3.65;;;3.05;;
53497;SDS011;39382;47.168;16.008;2023-06-19T14:48:45;5.38;;;3.30;;